Time;durP1;ratioP1;P1;durP2;ratioP2;P2;SDS_P1;SDS_P2;PMS_P1;PMS_P2;Temp;Humidity;BMP_temperature;BMP_pressure;BME280_temperature;BME280_humidity;BME280_pressure;Samples;Min_cycle;Max_cycle;Signal;HPM_P1;HPM_P2
2022/07/04 00:00:45;;;;;;;3.65;1.50;;;22.50;67.50;;;21.89;51.60;97513.03;5029519;28;20742;-75
2022/07/04 00:03:11;;;;;;;2.25;1.40;;;22.40;67.60;;;21.84;52.57;97496.25;5029874;28;20403;-75
2022/07/04 00:05:39;;;;;;;5.57;1.67;;;22.40;68.50;;;21.85;52.28;97498.63;5029724;28;20410;-75
2022/07/04 00:08:05;;;;;;;3.83;1.53;;;22.40;69.20;;;21.80;52.33;97498.00;5029165;28;20484;-75
2022/07/04 00:10:31;;;;;;;3.03;1.50;;;22.30;68.50;;;21.82;52.57;97493.06;5029813;28;20750;-75
2022/07/04 00:12:57;;;;;;;2.33;1.30;;;22.40;68.80;;;21.79;52.65;97491.03;5029681;28;20415;-74
2022/07/04 00:15:23;;;;;;;3.67;1.58;;;22.30;68.90;;;21.81;51.55;97486.91;5029476;28;20754;-75
2022/07/04 00:17:50;;;;;;;3.05;1.65;;;22.30;68.00;;;21.78;52.39;97494.84;5029776;28;20498;-74
2022/07/04 00:20:16;;;;;;;3.00;1.37;;;22.30;68.50;;;21.73;52.46;97485.00;5028805;28;20399;-75
2022/07/04 00:22:44;;;;;;;4.15;1.40;;;22.30;68.60;;;21.66;52.70;97473.94;5029701;28;20395;-75
2022/07/04 00:25:10;;;;;;;3.88;1.40;;;22.20;69.00;;;21.64;52.91;97470.78;5029515;28;20395;-75
2022/07/04 00:27:36;;;;;;;5.13;1.58;;;22.20;69.40;;;21.62;52.15;97483.78;5029669;28;20395;-75
2022/07/04 00:30:04;;;;;;;3.55;1.35;;;22.10;68.40;;;21.59;52.82;97487.09;5028920;28;20425;-75
2022/07/04 00:32:30;;;;;;;3.90;1.58;;;22.10;69.10;;;21.55;52.80;97478.09;5029454;28;20415;-74
2022/07/04 00:34:56;;;;;;;6.00;1.43;;;22.10;69.30;;;21.51;52.67;97482.50;5029776;28;20395;-75
2022/07/04 00:37:22;;;;;;;4.17;1.50;;;22.10;69.30;;;21.48;53.17;97475.88;5031617;28;20419;-75
2022/07/04 00:39:49;;;;;;;3.17;1.33;;;22.00;69.30;;;21.48;53.09;97483.16;5032615;28;20407;-74
2022/07/04 00:42:16;;;;;;;6.20;1.70;;;22.00;69.50;;;21.43;53.08;97486.00;5033239;28;20414;-74
2022/07/04 00:44:42;;;;;;;3.55;1.40;;;22.00;69.50;;;21.40;52.95;97487.44;5033249;28;20490;-74
2022/07/04 00:47:08;;;;;;;2.83;1.48;;;22.00;69.30;;;21.39;53.29;97496.63;5033255;28;20486;-74
2022/07/04 00:49:34;;;;;;;3.95;1.45;;;21.90;69.80;;;21.42;52.51;97501.41;5047446;22;20442;-73
2022/07/04 00:52:01;;;;;;;3.55;1.80;;;21.90;69.00;;;21.37;53.15;97498.84;5032737;28;20415;-73
2022/07/04 00:54:31;;;;;;;4.18;1.60;;;21.90;69.30;;;21.34;53.31;97494.13;5033115;28;20472;-74
2022/07/04 00:57:00;;;;;;;3.63;1.40;;;21.90;69.70;;;21.31;53.44;97496.63;5032990;28;20453;-73
2022/07/04 00:59:26;;;;;;;3.58;1.58;;;21.90;70.00;;;21.31;53.90;97502.03;5032332;28;20410;-73
2022/07/04 01:01:52;;;;;;;2.75;1.45;;;21.90;70.30;;;21.25;54.18;97490.63;5032785;28;20399;-73
2022/07/04 01:04:18;;;;;;;2.78;1.50;;;21.80;70.60;;;21.21;54.28;97493.16;5032953;28;20430;-73
2022/07/04 01:06:45;;;;;;;4.47;1.50;;;21.80;71.00;;;21.17;54.19;97497.59;5032778;28;20403;-74
2022/07/04 01:09:12;;;;;;;6.00;1.48;;;21.70;70.80;;;21.14;54.74;97497.38;5032199;28;20897;-73
2022/07/04 01:11:38;;;;;;;4.38;1.50;;;21.70;71.10;;;21.09;54.62;97498.34;5032521;28;20473;-73
2022/07/04 01:14:06;;;;;;;6.40;1.70;;;21.70;71.20;;;21.07;54.51;97508.63;5032669;28;20813;-73
2022/07/04 01:16:33;;;;;;;5.55;1.40;;;21.60;72.10;;;21.04;54.73;97503.91;5032522;28;20407;-74
2022/07/04 01:18:59;;;;;;;4.65;1.30;;;21.60;71.30;;;21.01;54.79;97499.13;5032044;28;20505;-71
2022/07/04 01:21:26;;;;;;;3.20;1.50;;;21.60;71.50;;;20.99;54.69;97500.56;5032365;28;20919;-73
2022/07/04 01:23:52;;;;;;;3.00;1.50;;;21.60;71.50;;;20.96;54.71;97496.59;5032714;28;20453;-73
2022/07/04 01:26:18;;;;;;;3.72;1.30;;;21.50;71.40;;;20.93;55.02;97504.50;5032456;28;20408;-73
2022/07/04 01:28:45;;;;;;;5.72;1.58;;;21.50;71.80;;;20.89;55.38;97498.97;5031988;28;20399;-72
2022/07/04 01:31:11;;;;;;;4.85;1.75;;;21.50;72.20;;;20.88;55.20;97499.28;5032602;28;20916;-72
2022/07/04 01:33:38;;;;;;;6.18;1.40;;;21.50;71.80;;;20.83;54.96;97508.28;5032612;28;20497;-72
2022/07/04 01:36:04;;;;;;;6.57;1.70;;;21.50;71.80;;;20.81;55.04;97507.81;5035251;28;20407;-72
2022/07/04 01:38:32;;;;;;;2.93;1.50;;;21.40;71.50;;;20.76;54.68;97506.06;5033497;28;20418;-73
2022/07/04 01:40:58;;;;;;;2.88;1.35;;;21.40;71.40;;;20.70;55.58;97510.00;5031993;28;20407;-73
2022/07/04 01:43:24;;;;;;;3.22;1.30;;;21.40;72.20;;;20.67;55.87;97509.84;5032239;28;20398;-73
2022/07/04 01:45:50;;;;;;;2.28;1.20;;;21.30;72.70;;;20.64;56.33;97511.25;5032041;28;20749;-73
2022/07/04 01:48:16;;;;;;;5.40;1.75;;;21.30;73.30;;;20.65;56.04;97510.16;5031407;28;20411;-73
2022/07/04 01:50:42;;;;;;;3.08;1.40;;;21.30;73.40;;;20.67;56.04;97513.34;5031640;28;20464;-73
2022/07/04 01:53:08;;;;;;;4.10;1.55;;;21.30;73.20;;;20.66;55.74;97521.72;5031927;28;20800;-74
2022/07/04 01:55:35;;;;;;;2.30;1.40;;;21.30;72.60;;;20.64;55.59;97522.03;5031953;28;20410;-73
2022/07/04 01:58:01;;;;;;;2.95;1.48;;;21.20;72.50;;;20.63;55.78;97525.00;5031643;28;20411;-73
2022/07/04 02:03:13;;;;;;;3.78;1.50;;;21.20;72.20;;;20.57;55.74;97531.66;5031743;28;20398;-73
2022/07/04 02:05:39;;;;;;;5.10;1.50;;;21.20;72.70;;;20.56;55.73;97538.13;5031614;28;20403;-73
2022/07/04 02:08:05;;;;;;;5.07;1.98;;;21.20;72.90;;;20.55;55.21;97540.03;5031174;28;20399;-73
2022/07/04 02:10:31;;;;;;;5.50;1.90;;;21.20;72.40;;;20.53;55.32;97533.38;5031184;28;20432;-72
2022/07/04 02:13:02;;;;;;;3.83;1.60;;;21.20;72.30;;;20.49;55.49;97530.53;5031694;28;20441;-72
2022/07/04 02:15:29;;;;;;;2.72;1.60;;;21.10;72.60;;;20.43;55.59;97535.25;5031376;28;20414;-73
2022/07/04 02:17:55;;;;;;;3.97;1.67;;;21.10;72.60;;;20.40;55.66;97535.06;5031583;28;20407;-72
2022/07/04 02:20:21;;;;;;;2.30;1.40;;;21.00;72.90;;;20.35;55.76;97536.00;5012768;28;20826;-73
2022/07/04 02:22:47;;;;;;;2.53;1.40;;;21.00;73.00;;;20.31;56.05;97531.50;5031271;28;20391;-73
2022/07/04 02:25:13;;;;;;;3.28;1.42;;;21.00;73.20;;;20.27;56.93;97528.66;5031309;28;20411;-73
2022/07/04 02:27:39;;;;;;;2.85;1.38;;;20.90;73.60;;;20.26;56.04;97535.13;5013567;28;20411;-72
2022/07/04 02:30:08;;;;;;;5.10;1.67;;;20.90;73.30;;;20.26;56.26;97537.81;5030512;28;20408;-73
2022/07/04 02:32:35;;;;;;;6.43;1.67;;;20.90;73.70;;;20.20;56.25;97532.91;5030938;28;20422;-72
2022/07/04 02:35:01;;;;;;;2.63;1.48;;;20.80;73.50;;;20.19;56.86;97542.84;5031224;28;20411;-73
2022/07/04 02:37:27;;;;;;;3.58;1.67;;;20.90;74.20;;;20.19;56.55;97552.81;5031209;28;20419;-73
2022/07/04 02:39:53;;;;;;;3.42;1.60;;;20.80;74.20;;;20.16;55.89;97556.91;5030500;28;20861;-73
2022/07/04 02:42:19;;;;;;;3.90;1.52;;;20.80;73.10;;;20.14;56.71;97553.75;5030985;28;20410;-73
2022/07/04 02:44:45;;;;;;;5.05;1.63;;;20.80;74.00;;;20.14;56.77;97559.13;5030974;28;20777;-73
2022/07/04 02:47:12;;;;;;;5.68;2.30;;;20.70;74.40;;;20.15;55.89;97557.22;5031008;28;20430;-72
2022/07/04 02:49:38;;;;;;;2.90;1.50;;;20.70;73.70;;;20.07;56.43;97562.22;5030136;28;20414;-73
2022/07/04 02:52:05;;;;;;;4.68;1.60;;;20.70;73.60;;;20.01;56.73;97560.78;5030646;28;20429;-73
2022/07/04 02:54:31;;;;;;;5.00;1.60;;;20.60;74.00;;;20.00;56.39;97572.63;5030717;28;20395;-73
2022/07/04 02:56:57;;;;;;;5.15;1.55;;;20.60;73.90;;;19.95;56.97;97574.66;5030875;28;20482;-73
2022/07/04 02:59:23;;;;;;;2.50;1.40;;;20.60;74.40;;;19.92;57.49;97575.28;5029496;28;20407;-73
2022/07/04 03:01:49;;;;;;;3.03;1.58;;;20.60;75.10;;;19.90;56.92;97574.78;5030576;28;20407;-73
2022/07/04 03:04:16;;;;;;;6.13;1.58;;;20.60;74.40;;;19.86;57.08;97577.28;5030725;28;20897;-73
2022/07/04 03:06:42;;;;;;;3.85;1.60;;;20.50;74.70;;;19.82;57.58;97581.69;5030590;28;20965;-73
2022/07/04 03:09:09;;;;;;;2.90;1.70;;;20.50;74.90;;;19.80;57.38;97583.09;5029813;28;20464;-73
2022/07/04 03:11:35;;;;;;;5.68;1.60;;;20.50;75.10;;;19.76;57.84;97582.91;5030322;28;20450;-73
2022/07/04 03:14:01;;;;;;;6.03;2.03;;;20.40;75.30;;;19.74;57.63;97581.63;5030594;28;20445;-74
2022/07/04 03:16:27;;;;;;;5.70;1.98;;;20.40;75.30;;;19.69;57.90;97571.81;5030378;28;20410;-73
2022/07/04 03:18:53;;;;;;;4.05;1.60;;;20.40;75.50;;;19.65;57.90;97586.91;5029818;28;20880;-73
2022/07/04 03:21:20;;;;;;;3.40;1.60;;;20.30;75.70;;;19.61;58.08;97584.06;5030255;28;20446;-73
2022/07/04 03:23:58;;;;;;;5.10;1.85;;;20.30;75.80;;;19.57;57.55;97580.38;5012619;28;20459;-73
2022/07/04 03:26:25;;;;;;;4.35;1.60;;;20.30;75.80;;;19.52;58.26;97575.13;5030227;28;20864;-72
2022/07/04 03:28:52;;;;;;;4.43;1.67;;;20.20;75.90;;;19.46;58.67;97584.38;5029532;28;20423;-72
2022/07/04 03:31:18;;;;;;;3.42;1.40;;;20.20;76.50;;;19.44;59.28;97581.19;5030027;28;20406;-73
2022/07/04 03:33:43;;;;;;;3.90;1.63;;;20.20;77.30;;;19.40;59.44;97579.41;5030103;28;20512;-73
2022/07/04 03:36:10;;;;;;;4.45;1.80;;;20.10;77.60;;;19.38;59.57;97598.53;5030120;28;20407;-73
2022/07/04 03:38:37;;;;;;;6.03;2.00;;;20.10;77.80;;;19.32;59.84;97589.78;5029457;28;20407;-73
2022/07/04 03:41:03;;;;;;;3.45;1.45;;;20.00;78.20;;;19.27;60.41;97597.16;5029943;28;20410;-73
2022/07/04 03:43:29;;;;;;;5.15;1.60;;;20.00;78.70;;;19.25;60.77;97596.66;5012466;28;20411;-73
2022/07/04 03:45:55;;;;;;;5.47;1.85;;;20.00;79.40;;;19.19;60.82;97604.03;5030053;28;20417;-72
2022/07/04 03:48:21;;;;;;;4.10;1.83;;;19.90;79.50;;;19.20;60.13;97602.94;5028523;28;20814;-73
2022/07/04 03:50:47;;;;;;;3.15;1.67;;;19.90;79.60;;;19.17;60.44;97605.44;5027560;28;20414;-71
2022/07/04 03:53:14;;;;;;;4.83;1.80;;;19.90;79.30;;;19.20;60.47;97610.19;5011884;28;21083;-70
2022/07/04 03:55:42;;;;;;;3.35;1.60;;;19.90;79.50;;;19.18;59.90;97601.63;5029879;28;20406;-71
2022/07/04 03:58:08;;;;;;;8.37;1.73;;;19.90;78.80;;;19.20;59.35;97615.56;5026162;28;20409;-72
2022/07/04 04:00:35;;;;;;;3.90;1.73;;;19.80;78.20;;;19.19;60.14;97605.91;5018656;28;20824;-74
2022/07/04 04:03:01;;;;;;;3.88;1.60;;;19.90;79.00;;;19.21;59.86;97606.41;5017502;28;20466;-72
2022/07/04 04:05:27;;;;;;;6.93;1.90;;;19.90;80.00;;;19.18;59.69;97610.47;5026286;28;20412;-71
2022/07/04 04:07:58;;;;;;;5.68;1.70;;;19.80;78.80;;;19.17;59.74;97608.13;5026725;28;20410;-72
2022/07/04 04:10:24;;;;;;;3.28;1.63;;;19.80;78.60;;;19.17;59.08;97613.50;5019039;28;20567;-71
2022/07/04 04:12:52;;;;;;;4.80;1.83;;;19.80;78.00;;;19.09;59.86;97619.56;5021191;28;20424;-72
2022/07/04 04:15:18;;;;;;;7.47;1.88;;;19.80;78.70;;;19.12;59.85;97625.09;5023809;28;20403;-71
2022/07/04 04:17:44;;;;;;;4.97;2.00;;;19.80;78.90;;;19.07;59.76;97627.09;5016022;28;20415;-72
2022/07/04 04:20:10;;;;;;;4.70;1.80;;;19.80;78.70;;;19.07;59.77;97638.63;5027402;28;20407;-71
2022/07/04 04:22:36;;;;;;;3.67;1.70;;;19.70;78.90;;;19.08;59.24;97639.44;5033735;28;20398;-72
2022/07/04 04:25:03;;;;;;;2.50;1.80;;;19.80;78.20;;;19.06;59.58;97629.00;5025383;28;20394;-72
2022/07/04 04:27:30;;;;;;;3.85;1.70;;;19.70;78.50;;;19.03;59.67;97643.00;5023685;28;20411;-72
2022/07/04 04:29:57;;;;;;;3.47;1.55;;;19.70;78.70;;;19.02;60.04;97640.63;5023579;28;20399;-73
2022/07/04 04:32:23;;;;;;;6.80;1.80;;;19.70;79.40;;;18.99;59.95;97654.63;5032889;28;20480;-72
2022/07/04 04:34:49;;;;;;;4.23;1.60;;;19.70;79.40;;;18.99;59.92;97658.09;5033314;28;20407;-73
2022/07/04 04:37:15;;;;;;;3.93;2.03;;;19.70;79.00;;;18.99;60.29;97663.47;5033403;28;20399;-72
2022/07/04 04:39:40;;;;;;;3.53;1.40;;;19.70;79.50;;;18.97;60.59;97664.84;5032784;28;21219;-72
2022/07/04 04:42:06;;;;;;;4.43;1.92;;;19.70;80.00;;;18.95;60.03;97665.16;5015405;28;20959;-71
2022/07/04 04:44:32;;;;;;;4.65;1.75;;;19.70;79.70;;;18.94;60.65;97669.72;5033156;28;20438;-72
2022/07/04 04:47:00;;;;;;;3.35;1.70;;;19.70;79.80;;;18.93;60.69;97670.03;5033307;28;20497;-72
2022/07/04 04:49:26;;;;;;;3.70;1.63;;;19.60;80.20;;;18.94;60.54;97677.00;5032185;28;20418;-71
2022/07/04 04:51:52;;;;;;;4.10;1.63;;;19.60;80.10;;;18.93;60.14;97676.19;5032712;28;20422;-71
2022/07/04 04:54:17;;;;;;;4.70;1.60;;;19.60;79.80;;;18.95;60.70;97684.72;5031597;28;20469;-72
2022/07/04 04:56:43;;;;;;;5.63;1.77;;;19.60;79.80;;;18.95;60.31;97684.72;5032728;28;20457;-72
2022/07/04 04:59:09;;;;;;;4.53;1.90;;;19.60;79.80;;;18.97;60.54;97686.31;5032252;28;20406;-71
2022/07/04 05:01:35;;;;;;;5.03;1.40;;;19.60;80.10;;;18.93;60.94;97681.56;5032755;28;20399;-71
2022/07/04 05:04:03;;;;;;;5.20;1.80;;;19.60;80.60;;;18.99;60.95;97684.94;5032946;28;20912;-72
2022/07/04 05:06:29;;;;;;;3.47;1.70;;;19.60;80.90;;;18.96;61.06;97685.53;5032654;28;20529;-72
2022/07/04 05:08:55;;;;;;;2.13;1.70;;;19.60;80.90;;;18.94;61.54;97682.38;5032204;28;20402;-72
2022/07/04 05:11:21;;;;;;;7.70;1.60;;;19.60;81.40;;;18.91;60.80;97686.44;5032592;28;20414;-72
2022/07/04 05:13:47;;;;;;;5.15;1.55;;;19.60;80.90;;;18.91;61.28;97686.44;5032239;28;20415;-72
2022/07/04 05:16:13;;;;;;;5.37;1.70;;;19.60;81.40;;;18.92;61.18;97679.97;5021956;28;20399;-73
2022/07/04 05:18:39;;;;;;;5.67;1.90;;;19.60;81.60;;;18.94;61.50;97691.19;5014738;28;20891;-73
2022/07/04 05:21:06;;;;;;;5.83;2.00;;;19.60;81.70;;;18.91;61.51;97683.75;5012576;28;20423;-72
2022/07/04 05:23:32;;;;;;;6.20;1.60;;;19.60;82.10;;;18.91;61.65;97681.06;5012325;28;20401;-72
2022/07/04 05:25:58;;;;;;;7.55;2.13;;;19.60;82.40;;;18.93;61.36;97683.44;5012610;28;20463;-74
2022/07/04 05:28:24;;;;;;;4.05;1.75;;;19.60;81.70;;;18.93;61.29;97684.25;5012205;28;20412;-73
2022/07/04 05:30:51;;;;;;;4.13;1.95;;;19.60;81.90;;;18.93;62.08;97691.50;5011023;28;20428;-73
2022/07/04 05:33:17;;;;;;;6.30;1.83;;;19.60;82.70;;;18.94;61.19;97687.72;5029979;28;20464;-73
2022/07/04 05:35:43;;;;;;;5.72;1.98;;;19.60;82.10;;;18.94;61.12;97682.38;5031988;28;20403;-73
2022/07/04 05:38:11;;;;;;;5.55;2.40;;;19.60;82.00;;;18.94;61.64;97687.72;5031259;28;20395;-73
2022/07/04 05:40:37;;;;;;;2.47;1.70;;;19.60;82.20;;;18.97;62.37;97681.75;5021883;28;20819;-73
2022/07/04 05:43:02;;;;;;;3.63;1.80;;;19.60;83.20;;;19.06;61.60;97679.97;5021330;28;20405;-72
2022/07/04 05:45:28;;;;;;;5.90;1.95;;;19.70;82.70;;;19.14;60.22;97681.16;5021390;28;20407;-72
2022/07/04 05:47:54;;;;;;;5.30;1.45;;;19.80;81.20;;;19.21;59.47;97678.88;5022886;28;20407;-72
2022/07/04 05:50:21;;;;;;;4.05;1.50;;;19.90;80.00;;;19.35;60.51;97671.59;5019930;28;20419;-72
2022/07/04 05:52:47;;;;;;;4.18;1.60;;;20.00;80.80;;;19.45;58.96;97679.44;5018995;28;20420;-73
2022/07/04 05:55:14;;;;;;;5.10;1.90;;;20.10;79.60;;;19.56;59.82;97674.66;5016737;28;20921;-72
2022/07/04 05:57:40;;;;;;;4.95;1.75;;;20.20;79.90;;;19.67;59.42;97673.38;5012350;28;20425;-72
2022/07/04 06:00:07;;;;;;;3.47;1.50;;;20.30;79.50;;;19.79;59.45;97664.75;5011288;28;20415;-73
2022/07/04 06:02:33;;;;;;;5.20;1.67;;;20.40;79.60;;;19.87;59.11;97655.97;5017112;28;20409;-73
2022/07/04 06:04:59;;;;;;;2.92;1.70;;;20.40;79.10;;;19.93;58.17;97662.81;5012029;28;20404;-73
2022/07/04 06:07:25;;;;;;;5.05;1.60;;;20.50;78.10;;;20.03;57.77;97657.22;5010709;28;20413;-73
2022/07/04 06:09:51;;;;;;;1.83;1.33;;;20.60;78.00;;;20.04;57.86;97648.84;5025436;28;20762;-74
2022/07/04 06:12:18;;;;;;;5.45;1.60;;;20.70;77.40;;;20.09;58.10;97653.31;5015230;28;20439;-74
2022/07/04 06:14:45;;;;;;;3.70;1.70;;;20.70;77.70;;;20.09;56.37;97654.09;5016686;28;20402;-72
2022/07/04 06:17:11;;;;;;;3.95;1.50;;;20.70;76.30;;;20.07;56.12;97658.22;5021977;28;20929;-73
2022/07/04 06:19:38;;;;;;;5.73;1.70;;;20.70;75.30;;;20.08;57.27;97665.16;5027817;28;20445;-73
2022/07/04 06:22:04;;;;;;;2.90;1.40;;;20.70;76.20;;;20.08;58.04;97665.16;5026719;28;20435;-73
2022/07/04 06:24:30;;;;;;;2.63;1.58;;;20.70;77.30;;;20.10;58.09;97679.09;5016495;28;20422;-72
2022/07/04 06:26:56;;;;;;;3.17;1.30;;;20.70;77.60;;;20.10;58.70;97679.88;5019416;28;20409;-72
2022/07/04 06:29:23;;;;;;;4.40;1.42;;;20.70;78.10;;;20.12;58.92;97671.53;5020047;28;20509;-73
2022/07/04 06:31:49;;;;;;;4.07;1.63;;;20.70;78.70;;;20.17;59.15;97678.66;5024888;28;20967;-73
2022/07/04 06:36:59;;;;;;;5.07;1.75;;;20.80;78.30;;;20.29;57.75;97674.34;5025220;28;20899;-73
2022/07/04 06:39:25;;;;;;;6.40;1.73;;;20.90;78.10;;;20.32;56.48;97679.06;5022423;28;20411;-73
2022/07/04 06:41:51;;;;;;;3.75;1.40;;;20.90;75.80;;;20.38;56.56;97682.47;5024771;28;20510;-72
2022/07/04 06:44:17;;;;;;;3.03;1.55;;;21.00;75.60;;;20.47;57.86;97681.41;5023670;28;20486;-73
2022/07/04 06:46:45;;;;;;;5.13;1.70;;;21.10;77.10;;;20.56;56.64;97688.75;5021159;28;20420;-72
2022/07/04 06:51:47;;;;;;;7.47;1.63;;;21.20;76.00;;;20.72;55.61;97689.94;4987482;28;20430;-78
2022/07/04 06:54:12;;;;;;;2.65;1.48;;;21.30;74.60;;;20.77;56.00;97695.19;4996092;28;20471;-79
2022/07/04 06:56:38;;;;;;;2.53;1.50;;;21.30;74.80;;;20.81;57.05;97685.41;4993388;28;20511;-78
2022/07/04 06:59:04;;;;;;;1.73;1.30;;;21.30;75.60;;;20.87;57.35;97692.25;4989899;28;20406;-77
2022/07/04 07:01:30;;;;;;;2.65;1.17;;;21.40;76.50;;;20.92;57.24;97686.72;4990463;28;20476;-79
2022/07/04 07:03:58;;;;;;;5.03;1.60;;;21.50;76.60;;;20.95;57.21;97686.09;4990789;28;20402;-78
2022/07/04 07:06:24;;;;;;;2.97;1.30;;;21.50;76.30;;;21.00;56.66;97679.78;4990500;28;20912;-78
2022/07/04 07:08:49;;;;;;;5.43;1.50;;;21.50;75.70;;;20.99;55.07;97676.28;4987998;28;20459;-78
2022/07/04 07:11:19;;;;;;;3.07;1.60;;;21.60;73.60;;;21.02;55.22;97678.38;4994071;28;20419;-79
2022/07/04 07:13:49;;;;;;;3.58;1.63;;;21.60;73.80;;;21.09;55.85;97672.53;4991433;28;20496;-81
2022/07/04 07:16:16;;;;;;;1.70;1.30;;;21.60;74.60;;;21.14;56.19;97665.09;4990275;28;20774;-81
2022/07/04 07:18:42;;;;;;;2.88;1.35;;;21.70;74.80;;;21.22;56.65;97667.06;4989597;28;20402;-78
2022/07/04 07:21:09;;;;;;;2.70;1.30;;;21.80;75.50;;;21.34;56.98;97671.06;4988074;28;20411;-82
2022/07/04 07:23:39;;;;;;;3.95;1.27;;;21.80;76.10;;;21.44;56.99;97657.28;4990267;28;20402;-76
2022/07/04 07:26:05;;;;;;;6.18;1.77;;;22.00;76.20;;;21.46;55.89;97655.06;4990027;28;20504;-80
2022/07/04 07:28:31;;;;;;;5.35;1.60;;;22.00;74.60;;;21.53;55.40;97660.78;4990473;28;20884;-79
2022/07/04 07:30:57;;;;;;;3.00;1.10;;;22.10;74.20;;;21.59;55.81;97654.13;4990069;28;20453;-76
2022/07/04 07:33:23;;;;;;;3.20;1.27;;;22.10;74.60;;;21.65;55.77;97660.97;4991471;28;20444;-77
2022/07/04 07:35:48;;;;;;;3.10;1.27;;;22.20;74.60;;;21.68;55.74;97657.63;4990954;28;20474;-77
2022/07/04 07:38:16;;;;;;;1.77;1.40;;;22.20;74.40;;;21.73;55.92;97653.97;4990865;28;20406;-78
2022/07/04 07:40:42;;;;;;;4.22;1.48;;;22.20;74.70;;;21.77;55.69;97646.84;4989518;28;20409;-79
2022/07/04 07:43:08;;;;;;;2.53;1.25;;;22.30;74.40;;;21.78;55.96;97643.84;4987316;28;20410;-76
2022/07/04 07:45:34;;;;;;;2.10;1.13;;;22.30;74.70;;;21.80;56.34;97641.59;4989652;28;20434;-77
2022/07/04 07:48:01;;;;;;;3.03;1.30;;;22.30;75.00;;;21.87;55.47;97641.16;4990071;28;20428;-80
2022/07/04 07:50:27;;;;;;;2.60;1.40;;;22.40;74.10;;;21.91;55.39;97647.47;4991329;28;20418;-77
2022/07/04 07:52:53;;;;;;;3.70;1.67;;;22.40;74.10;;;21.92;55.44;97654.47;4991600;28;20777;-77
2022/07/04 07:55:20;;;;;;;2.03;1.33;;;22.40;74.10;;;21.94;55.62;97650.34;4987734;28;20430;-78
2022/07/04 07:57:46;;;;;;;5.53;1.42;;;22.40;74.20;;;21.95;55.63;97657.31;4990767;28;20407;-77
2022/07/04 08:00:13;;;;;;;5.57;1.58;;;22.40;74.20;;;22.00;55.34;97659.09;4989737;28;20488;-77
2022/07/04 08:05:24;;;;;;;2.13;1.40;;;22.50;74.40;;;22.07;55.51;97658.59;4989947;28;20464;-76
2022/07/04 08:07:49;;;;;;;4.68;1.52;;;22.60;74.20;;;22.09;55.72;97659.88;4989901;28;20897;-76
2022/07/04 08:10:15;;;;;;;3.20;1.35;;;22.60;74.30;;;22.09;54.86;97659.09;4988927;28;20465;-76
2022/07/04 08:12:43;;;;;;;5.35;1.50;;;22.60;73.10;;;22.09;55.01;97656.41;4987257;28;20426;-76
2022/07/04 08:15:10;;;;;;;3.23;1.50;;;22.60;73.50;;;22.12;55.10;97651.13;4991130;28;20405;-75
2022/07/04 08:17:36;;;;;;;3.50;1.40;;;22.60;73.60;;;22.13;55.34;97655.44;4989912;28;20915;-77
2022/07/04 08:20:03;;;;;;;3.23;1.60;;;22.60;73.70;;;22.10;54.78;97650.69;4987868;28;20398;-77
2022/07/04 08:22:29;;;;;;;3.60;1.70;;;22.60;73.70;;;22.02;53.21;97648.78;4989463;28;20409;-75
2022/07/04 08:24:55;;;;;;;7.13;1.70;;;22.60;71.50;;;22.05;54.77;97644.66;4989638;28;20414;-77
2022/07/04 08:27:22;;;;;;;4.50;1.63;;;22.60;72.10;;;22.09;54.73;97641.00;4990273;28;20406;-76
2022/07/04 08:29:49;;;;;;;4.80;1.65;;;22.60;73.00;;;22.11;54.93;97649.56;4989113;28;20411;-77
2022/07/04 08:32:16;;;;;;;1.42;1.20;;;22.60;73.60;;;22.16;55.07;97643.22;4989559;28;20833;-75
2022/07/04 08:34:42;;;;;;;2.37;1.30;;;22.70;73.40;;;22.20;54.71;97650.34;4989851;28;20772;-82
2022/07/04 08:37:09;;;;;;;4.20;1.63;;;22.70;73.00;;;22.23;54.41;97654.31;4989908;28;20402;-79
2022/07/04 08:39:35;;;;;;;3.47;1.50;;;22.70;72.60;;;22.25;55.00;97649.41;4989172;28;20407;-77
2022/07/04 08:42:05;;;;;;;2.90;1.60;;;22.70;73.00;;;22.29;55.06;97643.03;4990010;28;20414;-80
2022/07/04 08:44:33;;;;;;;4.75;1.85;;;22.80;73.60;;;22.37;54.72;97642.22;4989587;28;20409;-79
2022/07/04 08:47:01;;;;;;;4.85;1.63;;;22.90;73.30;;;22.38;54.32;97638.41;4989479;28;20801;-75
2022/07/04 08:49:31;;;;;;;9.95;2.05;;;22.90;72.50;;;22.39;50.81;97633.81;4988679;28;20962;-78
2022/07/04 08:52:01;;;;;;;6.15;1.92;;;22.90;68.70;;;22.29;51.44;97644.94;4986853;28;20416;-81
2022/07/04 09:00:01;;;;;;;2.47;1.48;;;22.90;70.90;;;22.45;54.58;97639.81;4992210;28;20393;-77
2022/07/04 09:02:29;;;;;;;4.68;1.60;;;23.00;71.80;;;22.52;53.95;97640.91;4989883;28;20419;-77
2022/07/04 09:04:55;;;;;;;5.38;1.85;;;23.00;71.70;;;22.58;54.60;97644.22;4985742;28;20452;-76
2022/07/04 09:07:22;;;;;;;2.92;1.42;;;23.10;72.30;;;22.70;54.39;97644.34;4989443;28;20420;-78
2022/07/04 09:09:49;;;;;;;2.53;1.55;;;23.20;72.50;;;22.81;54.22;97650.22;4982959;28;20445;-79
2022/07/04 09:12:15;;;;;;;3.72;1.48;;;23.30;72.10;;;22.85;52.97;97648.47;4986116;28;20420;-76
2022/07/04 09:14:41;;;;;;;5.60;1.85;;;23.40;71.20;;;22.90;52.82;97659.06;4991996;28;20418;-78
2022/07/04 09:17:07;;;;;;;2.40;1.40;;;23.40;70.40;;;22.90;52.76;97657.16;4991972;28;20465;-76
2022/07/04 09:19:35;;;;;;;4.57;1.73;;;23.40;70.20;;;22.91;52.84;97660.66;4988070;28;20418;-79
2022/07/04 09:22:09;;;;;;;3.78;1.58;;;23.40;70.50;;;22.92;51.76;97668.44;4988654;28;20975;-77
2022/07/04 09:24:45;;;;;;;3.55;1.23;;;23.40;69.10;;;23.07;52.01;97665.19;4983947;28;20417;-81
2022/07/04 09:27:12;;;;;;;3.00;1.27;;;23.50;69.40;;;23.18;52.23;97671.00;4982802;28;20404;-79
2022/07/04 09:29:53;;;;;;;2.80;1.42;;;23.60;69.50;;;23.38;53.24;97667.53;4983895;28;20411;-79
2022/07/04 09:32:32;;;;;;;5.03;1.67;;;23.80;70.70;;;23.44;49.43;97657.38;4991012;28;20904;-79
2022/07/04 09:34:59;;;;;;;7.03;1.92;;;24.00;66.00;;;23.41;49.78;97658.78;4987999;28;20450;-75
2022/07/04 09:37:37;;;;;;;4.15;1.80;;;23.90;65.90;;;23.47;50.48;97654.78;4981106;28;20414;-77
2022/07/04 09:40:07;;;;;;;3.53;1.52;;;24.00;67.10;;;23.61;51.51;97654.56;4983163;28;20411;-76
2022/07/04 09:42:41;;;;;;;6.55;1.55;;;24.00;68.50;;;23.68;49.26;97670.28;4994022;28;20411;-79
2022/07/04 09:45:10;;;;;;;5.78;1.60;;;24.20;66.10;;;23.85;49.55;97665.50;4989646;28;20410;-78
2022/07/04 09:47:38;;;;;;;4.15;1.92;;;24.30;66.40;;;24.00;49.70;97666.03;4979714;28;20405;-79
2022/07/04 09:50:08;;;;;;;2.10;1.30;;;24.40;66.50;;;24.11;50.08;97662.59;4973746;28;20411;-79
2022/07/04 09:52:49;;;;;;;2.97;1.40;;;24.50;66.70;;;24.23;50.95;97668.06;4989004;28;20414;-82
2022/07/04 09:55:23;;;;;;;4.88;1.70;;;24.70;67.90;;;24.37;50.02;97667.00;4990391;28;20576;-81
2022/07/04 09:57:50;;;;;;;2.50;1.42;;;24.80;66.40;;;24.48;47.48;97676.28;4989931;28;20407;-77
2022/07/04 10:00:19;;;;;;;2.97;1.40;;;24.90;65.80;;;24.55;47.56;97673.81;4974741;28;21057;-80
2022/07/04 10:02:45;;;;;;;5.53;2.10;;;25.00;63.90;;;24.48;45.98;97673.56;4989182;28;20888;-79
2022/07/04 10:05:12;;;;;;;6.25;1.55;;;25.00;61.40;;;24.47;46.82;97669.28;4989904;28;20421;-79
2022/07/04 10:07:43;;;;;;;3.28;1.30;;;24.90;62.00;;;24.56;47.14;97667.28;4991047;28;20476;-80
2022/07/04 10:10:33;;;;;;;3.72;1.30;;;25.00;62.80;;;24.69;48.45;97666.97;4977213;28;20473;-80
2022/07/04 10:13:03;;;;;;;1.73;1.20;;;25.10;64.60;;;24.89;47.87;97668.00;4987841;28;20461;-80
2022/07/04 10:15:29;;;;;;;3.45;1.55;;;25.20;64.00;;;24.95;47.53;97668.63;4988666;28;20440;-80
2022/07/04 10:17:56;;;;;;;4.03;1.30;;;25.40;63.60;;;24.99;44.93;97667.59;4987482;28;20949;-79
2022/07/04 10:20:23;;;;;;;1.92;1.23;;;25.40;60.10;;;25.03;45.74;97670.44;4984771;28;20509;-81
2022/07/04 10:22:49;;;;;;;2.42;1.10;;;25.40;61.00;;;25.14;46.38;97668.84;4985817;28;20415;-80
2022/07/04 10:25:15;;;;;;;2.17;1.50;;;25.50;61.80;;;25.26;47.62;97674.25;4989464;28;20565;-80
2022/07/04 10:27:42;;;;;;;3.45;1.42;;;25.60;63.10;;;25.25;45.88;97678.13;4985452;28;20422;-81
2022/07/04 10:30:13;;;;;;;3.20;1.30;;;25.60;61.10;;;25.36;45.99;97675.72;4985079;28;20443;-78
2022/07/04 10:32:43;;;;;;;2.20;1.20;;;25.70;61.50;;;25.32;44.11;97675.63;4989170;28;20474;-80
2022/07/04 10:35:11;;;;;;;3.58;1.30;;;25.80;61.00;;;25.36;43.08;97671.09;4986789;28;20505;-79